sensor_id;sensor_type;location;lat;lon;timestamp;temperature;humidity
9760;DHT22;4919;48.792;9.202;2023-05-14T00:02:11;11.10;1.00
9760;DHT22;4919;48.792;9.202;2023-05-14T00:04:56;11.10;1.00
9760;DHT22;4919;48.792;9.202;2023-05-14T00:07:41;11.00;1.00
9760;DHT22;4919;48.792;9.202;2023-05-14T00:10:26;11.00;1.00
9760;DHT22;4919;48.792;9.202;2023-05-14T00:13:11;11.00;1.00
9760;DHT22;4919;48.792;9.202;2023-05-14T00:15:56;10.90;1.00
9760;DHT22;4919;48.792;9.202;2023-05-14T00:18:41;10.90;1.00
9760;DHT22;4919;48.792;9.202;2023-05-14T00:21:25;10.90;1.00
9760;DHT22;4919;48.792;9.202;2023-05-14T00:24:10;10.80;1.00
9760;DHT22;4919;48.792;9.202;2023-05-14T00:26:55;10.80;1.00
9760;DHT22;4919;48.792;9.202;2023-05-14T00:29:40;10.80;1.00
9760;DHT22;4919;48.792;9.202;2023-05-14T00:32:25;10.90;1.00
9760;DHT22;4919;48.792;9.202;2023-05-14T00:35:10;10.90;1.00
9760;DHT22;4919;48.792;9.202;2023-05-14T00:37:54;11.00;1.00
9760;DHT22;4919;48.792;9.202;2023-05-14T00:40:39;11.00;1.00
9760;DHT22;4919;48.792;9.202;2023-05-14T00:43:24;11.00;1.00
9760;DHT22;4919;48.792;9.202;2023-05-14T00:46:10;11.00;1.00
9760;DHT22;4919;48.792;9.202;2023-05-14T00:48:56;11.10;1.00
9760;DHT22;4919;48.792;9.202;2023-05-14T00:51:42;11.00;1.00
9760;DHT22;4919;48.792;9.202;2023-05-14T00:54:28;11.00;1.00
9760;DHT22;4919;48.792;9.202;2023-05-14T00:57:13;11.00;1.00
9760;DHT22;4919;48.792;9.202;2023-05-14T00:59:58;10.90;1.00
9760;DHT22;4919;48.792;9.202;2023-05-14T01:02:42;10.90;1.00
9760;DHT22;4919;48.792;9.202;2023-05-14T01:15:14;10.60;1.00
9760;DHT22;4919;48.792;9.202;2023-05-14T01:18:07;10.50;1.00
9760;DHT22;4919;48.792;9.202;2023-05-14T01:20:53;10.50;1.00
9760;DHT22;4919;48.792;9.202;2023-05-14T01:23:38;10.40;1.00
9760;DHT22;4919;48.792;9.202;2023-05-14T01:26:23;10.30;1.00
9760;DHT22;4919;48.792;9.202;2023-05-14T01:29:25;10.30;1.00
9760;DHT22;4919;48.792;9.202;2023-05-14T01:32:12;10.30;1.00
9760;DHT22;4919;48.792;9.202;2023-05-14T01:35:00;10.20;1.00
9760;DHT22;4919;48.792;9.202;2023-05-14T01:37:46;10.20;1.00
9760;DHT22;4919;48.792;9.202;2023-05-14T01:40:32;10.20;1.00
9760;DHT22;4919;48.792;9.202;2023-05-14T01:43:16;10.10;1.00
9760;DHT22;4919;48.792;9.202;2023-05-14T01:46:02;10.10;1.00
9760;DHT22;4919;48.792;9.202;2023-05-14T01:48:47;10.10;1.00
9760;DHT22;4919;48.792;9.202;2023-05-14T01:51:32;10.10;1.00
9760;DHT22;4919;48.792;9.202;2023-05-14T01:54:17;10.10;1.00
9760;DHT22;4919;48.792;9.202;2023-05-14T01:57:02;10.10;1.00
9760;DHT22;4919;48.792;9.202;2023-05-14T01:59:47;10.00;1.00
9760;DHT22;4919;48.792;9.202;2023-05-14T02:02:32;10.00;1.00
9760;DHT22;4919;48.792;9.202;2023-05-14T02:05:17;10.00;1.00
9760;DHT22;4919;48.792;9.202;2023-05-14T02:08:01;10.10;1.00
9760;DHT22;4919;48.792;9.202;2023-05-14T02:10:46;10.10;1.00
9760;DHT22;4919;48.792;9.202;2023-05-14T02:13:31;10.10;1.00
9760;DHT22;4919;48.792;9.202;2023-05-14T02:16:16;10.10;1.00
9760;DHT22;4919;48.792;9.202;2023-05-14T02:19:01;10.10;1.00
9760;DHT22;4919;48.792;9.202;2023-05-14T02:21:46;10.20;1.00
9760;DHT22;4919;48.792;9.202;2023-05-14T02:24:31;10.20;1.00
9760;DHT22;4919;48.792;9.202;2023-05-14T02:27:16;10.20;1.00
9760;DHT22;4919;48.792;9.202;2023-05-14T02:30:02;10.20;1.00
9760;DHT22;4919;48.792;9.202;2023-05-14T02:32:47;10.20;1.00
9760;DHT22;4919;48.792;9.202;2023-05-14T02:35:31;10.20;1.00
9760;DHT22;4919;48.792;9.202;2023-05-14T02:38:17;10.20;1.00
9760;DHT22;4919;48.792;9.202;2023-05-14T02:41:02;10.20;1.00
9760;DHT22;4919;48.792;9.202;2023-05-14T02:43:46;10.20;1.00
9760;DHT22;4919;48.792;9.202;2023-05-14T02:46:32;10.20;1.00
9760;DHT22;4919;48.792;9.202;2023-05-14T02:49:16;10.20;1.00
9760;DHT22;4919;48.792;9.202;2023-05-14T02:52:01;10.20;1.00
9760;DHT22;4919;48.792;9.202;2023-05-14T02:54:46;10.20;1.00
9760;DHT22;4919;48.792;9.202;2023-05-14T02:57:31;10.30;1.00
9760;DHT22;4919;48.792;9.202;2023-05-14T03:00:16;10.30;1.00
9760;DHT22;4919;48.792;9.202;2023-05-14T03:03:01;10.40;1.00
9760;DHT22;4919;48.792;9.202;2023-05-14T03:05:46;10.40;1.00
9760;DHT22;4919;48.792;9.202;2023-05-14T03:08:31;10.40;1.00
9760;DHT22;4919;48.792;9.202;2023-05-14T03:11:16;10.50;1.00
9760;DHT22;4919;48.792;9.202;2023-05-14T03:14:01;10.40;1.00
9760;DHT22;4919;48.792;9.202;2023-05-14T03:16:45;10.50;1.00
9760;DHT22;4919;48.792;9.202;2023-05-14T03:19:30;10.50;1.00
9760;DHT22;4919;48.792;9.202;2023-05-14T03:22:15;10.50;1.00
9760;DHT22;4919;48.792;9.202;2023-05-14T03:25:00;10.50;1.00
9760;DHT22;4919;48.792;9.202;2023-05-14T03:27:45;10.60;1.00
9760;DHT22;4919;48.792;9.202;2023-05-14T03:30:30;10.60;1.00
9760;DHT22;4919;48.792;9.202;2023-05-14T03:33:15;10.60;1.00
9760;DHT22;4919;48.792;9.202;2023-05-14T03:36:00;10.70;1.00
9760;DHT22;4919;48.792;9.202;2023-05-14T03:38:45;10.70;1.00
9760;DHT22;4919;48.792;9.202;2023-05-14T03:41:30;10.70;1.00
9760;DHT22;4919;48.792;9.202;2023-05-14T03:44:15;10.70;1.00
9760;DHT22;4919;48.792;9.202;2023-05-14T03:46:59;10.70;1.00
9760;DHT22;4919;48.792;9.202;2023-05-14T03:49:44;10.80;1.00
9760;DHT22;4919;48.792;9.202;2023-05-14T03:52:29;10.80;1.00
9760;DHT22;4919;48.792;9.202;2023-05-14T03:55:14;10.80;1.00
9760;DHT22;4919;48.792;9.202;2023-05-14T03:57:59;10.70;1.00
9760;DHT22;4919;48.792;9.202;2023-05-14T04:00:44;10.60;1.00
9760;DHT22;4919;48.792;9.202;2023-05-14T04:03:28;10.50;1.00
9760;DHT22;4919;48.792;9.202;2023-05-14T04:06:13;10.50;1.00
9760;DHT22;4919;48.792;9.202;2023-05-14T04:08:58;10.40;1.00
9760;DHT22;4919;48.792;9.202;2023-05-14T04:11:43;10.40;1.00
9760;DHT22;4919;48.792;9.202;2023-05-14T04:14:28;10.30;1.00
9760;DHT22;4919;48.792;9.202;2023-05-14T04:17:12;10.30;1.00
9760;DHT22;4919;48.792;9.202;2023-05-14T04:19:57;10.30;1.00
9760;DHT22;4919;48.792;9.202;2023-05-14T04:22:42;10.30;1.00
9760;DHT22;4919;48.792;9.202;2023-05-14T04:25:27;10.30;1.00
9760;DHT22;4919;48.792;9.202;2023-05-14T04:28:12;10.50;1.00
9760;DHT22;4919;48.792;9.202;2023-05-14T04:30:57;10.50;1.00
9760;DHT22;4919;48.792;9.202;2023-05-14T04:33:42;10.60;1.00
9760;DHT22;4919;48.792;9.202;2023-05-14T04:36:27;10.70;1.00
9760;DHT22;4919;48.792;9.202;2023-05-14T04:39:11;10.80;1.00
9760;DHT22;4919;48.792;9.202;2023-05-14T04:41:56;11.00;1.00
9760;DHT22;4919;48.792;9.202;2023-05-14T04:44:41;11.20;1.00
9760;DHT22;4919;48.792;9.202;2023-05-14T04:47:26;11.30;1.00
9760;DHT22;4919;48.792;9.202;2023-05-14T04:50:11;11.50;1.00
9760;DHT22;4919;48.792;9.202;2023-05-14T04:52:56;11.80;1.00
9760;DHT22;4919;48.792;9.202;2023-05-14T04:55:41;12.30;1.00
9760;DHT22;4919;48.792;9.202;2023-05-14T04:58:26;12.70;1.00
9760;DHT22;4919;48.792;9.202;2023-05-14T05:01:11;13.10;1.00
9760;DHT22;4919;48.792;9.202;2023-05-14T05:03:55;13.20;1.00
9760;DHT22;4919;48.792;9.202;2023-05-14T05:06:40;13.10;1.00
9760;DHT22;4919;48.792;9.202;2023-05-14T05:09:25;13.10;1.00
9760;DHT22;4919;48.792;9.202;2023-05-14T05:12:10;13.00;1.00
9760;DHT22;4919;48.792;9.202;2023-05-14T05:14:56;12.80;1.00
9760;DHT22;4919;48.792;9.202;2023-05-14T05:17:41;12.70;1.00
9760;DHT22;4919;48.792;9.202;2023-05-14T05:20:26;12.60;1.00
9760;DHT22;4919;48.792;9.202;2023-05-14T05:23:11;12.50;1.00
9760;DHT22;4919;48.792;9.202;2023-05-14T05:25:55;12.50;1.00
9760;DHT22;4919;48.792;9.202;2023-05-14T05:28:40;12.50;1.00
9760;DHT22;4919;48.792;9.202;2023-05-14T05:31:25;12.50;1.00
9760;DHT22;4919;48.792;9.202;2023-05-14T05:34:10;12.70;1.00
9760;DHT22;4919;48.792;9.202;2023-05-14T05:36:55;12.70;1.00
9760;DHT22;4919;48.792;9.202;2023-05-14T05:39:39;12.80;1.00
9760;DHT22;4919;48.792;9.202;2023-05-14T05:42:24;12.80;1.00
9760;DHT22;4919;48.792;9.202;2023-05-14T05:45:09;12.90;1.00
9760;DHT22;4919;48.792;9.202;2023-05-14T05:47:54;13.00;1.00
9760;DHT22;4919;48.792;9.202;2023-05-14T05:50:39;13.00;1.00
9760;DHT22;4919;48.792;9.202;2023-05-14T05:53:24;13.00;1.00
9760;DHT22;4919;48.792;9.202;2023-05-14T05:56:09;13.20;1.00
9760;DHT22;4919;48.792;9.202;2023-05-14T05:58:54;13.20;1.00
9760;DHT22;4919;48.792;9.202;2023-05-14T06:01:39;13.40;1.00
9760;DHT22;4919;48.792;9.202;2023-05-14T06:04:24;13.40;1.00
9760;DHT22;4919;48.792;9.202;2023-05-14T06:07:08;13.50;1.00
9760;DHT22;4919;48.792;9.202;2023-05-14T06:09:53;13.80;1.00
9760;DHT22;4919;48.792;9.202;2023-05-14T06:12:38;14.10;1.00
9760;DHT22;4919;48.792;9.202;2023-05-14T06:15:23;14.30;1.00
9760;DHT22;4919;48.792;9.202;2023-05-14T06:18:08;14.30;1.00
9760;DHT22;4919;48.792;9.202;2023-05-14T06:20:53;14.10;1.00
9760;DHT22;4919;48.792;9.202;2023-05-14T06:23:38;14.10;1.00
9760;DHT22;4919;48.792;9.202;2023-05-14T06:26:22;14.20;1.00
9760;DHT22;4919;48.792;9.202;2023-05-14T06:29:07;14.20;1.00
9760;DHT22;4919;48.792;9.202;2023-05-14T06:31:52;14.20;1.00
9760;DHT22;4919;48.792;9.202;2023-05-14T06:34:37;14.30;1.00
9760;DHT22;4919;48.792;9.202;2023-05-14T06:37:22;14.40;1.00
9760;DHT22;4919;48.792;9.202;2023-05-14T06:40:07;14.50;1.00
9760;DHT22;4919;48.792;9.202;2023-05-14T06:42:52;14.50;1.00
9760;DHT22;4919;48.792;9.202;2023-05-14T06:45:36;14.60;1.00
9760;DHT22;4919;48.792;9.202;2023-05-14T06:48:21;14.70;1.00
9760;DHT22;4919;48.792;9.202;2023-05-14T06:51:06;14.70;1.00
9760;DHT22;4919;48.792;9.202;2023-05-14T06:53:51;14.80;1.00
9760;DHT22;4919;48.792;9.202;2023-05-14T06:56:36;14.90;1.00
9760;DHT22;4919;48.792;9.202;2023-05-14T06:59:21;15.00;1.00
9760;DHT22;4919;48.792;9.202;2023-05-14T07:02:06;15.20;1.00
9760;DHT22;4919;48.792;9.202;2023-05-14T07:04:51;15.30;1.00
9760;DHT22;4919;48.792;9.202;2023-05-14T07:07:36;15.50;1.00
9760;DHT22;4919;48.792;9.202;2023-05-14T07:10:21;15.60;1.00
9760;DHT22;4919;48.792;9.202;2023-05-14T07:13:06;15.70;1.00
9760;DHT22;4919;48.792;9.202;2023-05-14T07:15:51;15.80;1.00
9760;DHT22;4919;48.792;9.202;2023-05-14T07:18:36;16.00;1.00
9760;DHT22;4919;48.792;9.202;2023-05-14T07:21:21;16.10;1.00
9760;DHT22;4919;48.792;9.202;2023-05-14T07:24:06;16.20;1.00
9760;DHT22;4919;48.792;9.202;2023-05-14T07:26:51;16.40;1.00
9760;DHT22;4919;48.792;9.202;2023-05-14T07:29:36;16.50;1.00
9760;DHT22;4919;48.792;9.202;2023-05-14T07:32:21;16.60;1.00
9760;DHT22;4919;48.792;9.202;2023-05-14T07:35:06;16.60;1.00
9760;DHT22;4919;48.792;9.202;2023-05-14T07:37:51;16.70;1.00
9760;DHT22;4919;48.792;9.202;2023-05-14T07:40:36;16.80;1.00
9760;DHT22;4919;48.792;9.202;2023-05-14T07:43:21;17.10;1.00
9760;DHT22;4919;48.792;9.202;2023-05-14T07:46:06;17.10;1.00
9760;DHT22;4919;48.792;9.202;2023-05-14T07:48:51;17.20;1.00
9760;DHT22;4919;48.792;9.202;2023-05-14T07:51:36;17.30;1.00
9760;DHT22;4919;48.792;9.202;2023-05-14T07:54:20;17.60;1.00
9760;DHT22;4919;48.792;9.202;2023-05-14T07:57:05;17.70;1.00
9760;DHT22;4919;48.792;9.202;2023-05-14T07:59:50;18.00;1.00
9760;DHT22;4919;48.792;9.202;2023-05-14T08:02:35;18.10;1.00
9760;DHT22;4919;48.792;9.202;2023-05-14T08:05:20;18.20;1.00
9760;DHT22;4919;48.792;9.202;2023-05-14T08:08:05;18.50;1.00
9760;DHT22;4919;48.792;9.202;2023-05-14T08:10:50;18.50;1.00
9760;DHT22;4919;48.792;9.202;2023-05-14T08:13:35;18.70;1.00
9760;DHT22;4919;48.792;9.202;2023-05-14T08:16:20;18.90;1.00
9760;DHT22;4919;48.792;9.202;2023-05-14T08:19:04;18.90;1.00
9760;DHT22;4919;48.792;9.202;2023-05-14T08:21:49;19.00;1.00
9760;DHT22;4919;48.792;9.202;2023-05-14T08:24:34;19.10;1.00
9760;DHT22;4919;48.792;9.202;2023-05-14T08:27:19;19.30;1.00
9760;DHT22;4919;48.792;9.202;2023-05-14T08:30:04;19.20;1.00
9760;DHT22;4919;48.792;9.202;2023-05-14T08:32:49;19.30;1.00
9760;DHT22;4919;48.792;9.202;2023-05-14T08:35:34;19.50;1.00
9760;DHT22;4919;48.792;9.202;2023-05-14T08:38:19;19.60;1.00
9760;DHT22;4919;48.792;9.202;2023-05-14T08:41:05;19.70;1.00
9760;DHT22;4919;48.792;9.202;2023-05-14T08:44:06;19.70;1.00
9760;DHT22;4919;48.792;9.202;2023-05-14T08:46:52;19.90;1.00
9760;DHT22;4919;48.792;9.202;2023-05-14T08:49:45;20.10;1.00
9760;DHT22;4919;48.792;9.202;2023-05-14T08:52:31;20.40;1.00
9760;DHT22;4919;48.792;9.202;2023-05-14T08:55:16;20.70;1.00
9760;DHT22;4919;48.792;9.202;2023-05-14T08:58:00;21.00;1.00
9760;DHT22;4919;48.792;9.202;2023-05-14T09:00:45;21.20;1.00
9760;DHT22;4919;48.792;9.202;2023-05-14T09:03:31;21.30;1.00
9760;DHT22;4919;48.792;9.202;2023-05-14T09:06:16;21.20;1.00
9760;DHT22;4919;48.792;9.202;2023-05-14T09:09:03;21.30;1.00
9760;DHT22;4919;48.792;9.202;2023-05-14T09:11:49;21.50;1.00
9760;DHT22;4919;48.792;9.202;2023-05-14T09:14:34;21.70;1.00
9760;DHT22;4919;48.792;9.202;2023-05-14T09:17:19;21.50;1.00
9760;DHT22;4919;48.792;9.202;2023-05-14T09:20:05;21.50;1.00
9760;DHT22;4919;48.792;9.202;2023-05-14T09:22:53;21.50;1.00
9760;DHT22;4919;48.792;9.202;2023-05-14T09:25:38;21.70;1.00
9760;DHT22;4919;48.792;9.202;2023-05-14T09:28:24;21.70;1.00
9760;DHT22;4919;48.792;9.202;2023-05-14T09:31:09;21.70;1.00
9760;DHT22;4919;48.792;9.202;2023-05-14T09:33:54;22.20;1.00
9760;DHT22;4919;48.792;9.202;2023-05-14T09:36:39;22.60;1.00
9760;DHT22;4919;48.792;9.202;2023-05-14T09:39:24;22.40;1.00
9760;DHT22;4919;48.792;9.202;2023-05-14T09:42:09;22.40;1.00
9760;DHT22;4919;48.792;9.202;2023-05-14T09:44:54;22.60;1.00
9760;DHT22;4919;48.792;9.202;2023-05-14T09:47:39;21.80;1.00
9760;DHT22;4919;48.792;9.202;2023-05-14T09:50:24;21.80;1.00
9760;DHT22;4919;48.792;9.202;2023-05-14T09:53:09;22.20;1.00
9760;DHT22;4919;48.792;9.202;2023-05-14T09:55:54;21.50;1.00
9760;DHT22;4919;48.792;9.202;2023-05-14T09:58:39;21.20;1.00
9760;DHT22;4919;48.792;9.202;2023-05-14T10:01:24;21.50;1.00
9760;DHT22;4919;48.792;9.202;2023-05-14T10:04:10;21.20;1.00
9760;DHT22;4919;48.792;9.202;2023-05-14T10:06:55;20.70;1.00
9760;DHT22;4919;48.792;9.202;2023-05-14T10:09:40;20.40;1.00
9760;DHT22;4919;48.792;9.202;2023-05-14T10:12:30;20.20;1.00
9760;DHT22;4919;48.792;9.202;2023-05-14T10:15:19;19.90;1.00
9760;DHT22;4919;48.792;9.202;2023-05-14T10:18:16;19.80;1.00
9760;DHT22;4919;48.792;9.202;2023-05-14T10:21:05;19.70;1.00
9760;DHT22;4919;48.792;9.202;2023-05-14T10:23:50;19.40;1.00
9760;DHT22;4919;48.792;9.202;2023-05-14T10:26:38;19.40;1.00
9760;DHT22;4919;48.792;9.202;2023-05-14T10:29:36;19.20;1.00
9760;DHT22;4919;48.792;9.202;2023-05-14T10:32:22;19.10;1.00
9760;DHT22;4919;48.792;9.202;2023-05-14T10:35:18;19.10;1.00
9760;DHT22;4919;48.792;9.202;2023-05-14T10:38:07;19.00;1.00
9760;DHT22;4919;48.792;9.202;2023-05-14T10:40:57;19.00;1.00
9760;DHT22;4919;48.792;9.202;2023-05-14T10:43:43;19.00;1.00
9760;DHT22;4919;48.792;9.202;2023-05-14T10:46:28;19.10;1.00
9760;DHT22;4919;48.792;9.202;2023-05-14T10:49:13;19.10;1.00
9760;DHT22;4919;48.792;9.202;2023-05-14T10:51:57;19.10;1.00
9760;DHT22;4919;48.792;9.202;2023-05-14T10:54:54;19.10;1.00
9760;DHT22;4919;48.792;9.202;2023-05-14T10:57:41;19.30;1.00
9760;DHT22;4919;48.792;9.202;2023-05-14T11:00:27;19.30;1.00
9760;DHT22;4919;48.792;9.202;2023-05-14T11:03:12;19.30;1.00
9760;DHT22;4919;48.792;9.202;2023-05-14T11:05:58;19.20;1.00
9760;DHT22;4919;48.792;9.202;2023-05-14T11:08:46;19.00;1.00
9760;DHT22;4919;48.792;9.202;2023-05-14T11:11:34;19.00;1.00
9760;DHT22;4919;48.792;9.202;2023-05-14T11:14:19;18.90;1.00
9760;DHT22;4919;48.792;9.202;2023-05-14T11:17:04;18.90;1.00
9760;DHT22;4919;48.792;9.202;2023-05-14T11:19:49;18.90;1.00
9760;DHT22;4919;48.792;9.202;2023-05-14T11:22:35;18.90;1.00
9760;DHT22;4919;48.792;9.202;2023-05-14T11:25:20;19.00;1.00
9760;DHT22;4919;48.792;9.202;2023-05-14T11:28:05;19.30;1.00
9760;DHT22;4919;48.792;9.202;2023-05-14T11:30:50;19.80;1.00
9760;DHT22;4919;48.792;9.202;2023-05-14T11:33:36;20.50;1.00
9760;DHT22;4919;48.792;9.202;2023-05-14T11:36:21;21.10;1.00
9760;DHT22;4919;48.792;9.202;2023-05-14T11:39:05;21.00;1.00
9760;DHT22;4919;48.792;9.202;2023-05-14T11:41:50;20.80;1.00
9760;DHT22;4919;48.792;9.202;2023-05-14T11:44:35;20.70;1.00
9760;DHT22;4919;48.792;9.202;2023-05-14T11:47:20;20.60;1.00
9760;DHT22;4919;48.792;9.202;2023-05-14T11:50:06;20.40;1.00
9760;DHT22;4919;48.792;9.202;2023-05-14T11:52:55;20.30;1.00
9760;DHT22;4919;48.792;9.202;2023-05-14T11:55:40;20.20;1.00
9760;DHT22;4919;48.792;9.202;2023-05-14T11:58:25;20.10;1.00
9760;DHT22;4919;48.792;9.202;2023-05-14T12:01:12;19.80;1.00
9760;DHT22;4919;48.792;9.202;2023-05-14T12:03:59;19.70;1.00
9760;DHT22;4919;48.792;9.202;2023-05-14T12:06:44;19.60;1.00
9760;DHT22;4919;48.792;9.202;2023-05-14T12:09:28;19.50;1.00
9760;DHT22;4919;48.792;9.202;2023-05-14T12:12:15;19.40;1.00
9760;DHT22;4919;48.792;9.202;2023-05-14T12:14:59;19.50;1.00
9760;DHT22;4919;48.792;9.202;2023-05-14T12:17:50;19.60;1.00
9760;DHT22;4919;48.792;9.202;2023-05-14T12:20:35;19.70;1.00
9760;DHT22;4919;48.792;9.202;2023-05-14T12:23:28;19.90;1.00
9760;DHT22;4919;48.792;9.202;2023-05-14T12:26:13;20.10;1.00
9760;DHT22;4919;48.792;9.202;2023-05-14T12:29:02;20.50;1.00
9760;DHT22;4919;48.792;9.202;2023-05-14T12:31:48;20.60;1.00
9760;DHT22;4919;48.792;9.202;2023-05-14T12:34:33;20.70;1.00
9760;DHT22;4919;48.792;9.202;2023-05-14T12:37:18;20.80;1.00
9760;DHT22;4919;48.792;9.202;2023-05-14T12:40:03;20.80;1.00
9760;DHT22;4919;48.792;9.202;2023-05-14T12:42:48;20.70;1.00
9760;DHT22;4919;48.792;9.202;2023-05-14T12:45:33;20.80;1.00
9760;DHT22;4919;48.792;9.202;2023-05-14T12:48:18;20.90;1.00
9760;DHT22;4919;48.792;9.202;2023-05-14T12:51:03;20.70;1.00
9760;DHT22;4919;48.792;9.202;2023-05-14T12:53:48;20.50;1.00
9760;DHT22;4919;48.792;9.202;2023-05-14T12:56:33;20.60;1.00
9760;DHT22;4919;48.792;9.202;2023-05-14T12:59:17;20.70;1.00
9760;DHT22;4919;48.792;9.202;2023-05-14T13:02:02;20.60;1.00
9760;DHT22;4919;48.792;9.202;2023-05-14T13:04:48;20.60;1.00
9760;DHT22;4919;48.792;9.202;2023-05-14T13:07:32;20.40;1.00
9760;DHT22;4919;48.792;9.202;2023-05-14T13:10:17;20.20;1.00
9760;DHT22;4919;48.792;9.202;2023-05-14T13:13:02;20.30;1.00
9760;DHT22;4919;48.792;9.202;2023-05-14T13:15:47;20.30;1.00
9760;DHT22;4919;48.792;9.202;2023-05-14T13:18:31;20.40;1.00
9760;DHT22;4919;48.792;9.202;2023-05-14T13:21:16;20.40;1.00
9760;DHT22;4919;48.792;9.202;2023-05-14T13:24:01;20.50;1.00
9760;DHT22;4919;48.792;9.202;2023-05-14T13:26:46;20.70;1.00
9760;DHT22;4919;48.792;9.202;2023-05-14T13:29:31;20.70;1.00
9760;DHT22;4919;48.792;9.202;2023-05-14T13:32:16;20.50;1.00
9760;DHT22;4919;48.792;9.202;2023-05-14T13:35:00;20.30;1.00
9760;DHT22;4919;48.792;9.202;2023-05-14T13:37:46;20.00;1.00
9760;DHT22;4919;48.792;9.202;2023-05-14T13:40:30;19.80;1.00
9760;DHT22;4919;48.792;9.202;2023-05-14T13:43:15;19.60;1.00
9760;DHT22;4919;48.792;9.202;2023-05-14T13:46:01;19.40;1.00
9760;DHT22;4919;48.792;9.202;2023-05-14T13:48:46;19.20;1.00
9760;DHT22;4919;48.792;9.202;2023-05-14T13:51:31;19.20;1.00
9760;DHT22;4919;48.792;9.202;2023-05-14T13:54:16;19.20;1.00
9760;DHT22;4919;48.792;9.202;2023-05-14T13:57:01;19.10;1.00
9760;DHT22;4919;48.792;9.202;2023-05-14T13:59:46;19.20;1.00
9760;DHT22;4919;48.792;9.202;2023-05-14T14:02:31;19.20;1.00
9760;DHT22;4919;48.792;9.202;2023-05-14T14:05:15;19.20;1.00
9760;DHT22;4919;48.792;9.202;2023-05-14T14:08:00;19.20;1.00
9760;DHT22;4919;48.792;9.202;2023-05-14T14:10:45;19.30;1.00
9760;DHT22;4919;48.792;9.202;2023-05-14T14:13:30;19.30;1.00
9760;DHT22;4919;48.792;9.202;2023-05-14T14:16:15;19.30;1.00
9760;DHT22;4919;48.792;9.202;2023-05-14T14:18:59;19.50;1.00
9760;DHT22;4919;48.792;9.202;2023-05-14T14:21:45;19.50;1.00
9760;DHT22;4919;48.792;9.202;2023-05-14T14:24:29;19.60;1.00
9760;DHT22;4919;48.792;9.202;2023-05-14T14:27:14;19.70;1.00
9760;DHT22;4919;48.792;9.202;2023-05-14T14:29:59;19.90;1.00
9760;DHT22;4919;48.792;9.202;2023-05-14T14:32:48;20.00;1.00
9760;DHT22;4919;48.792;9.202;2023-05-14T14:35:32;20.00;1.00
9760;DHT22;4919;48.792;9.202;2023-05-14T14:38:18;20.30;1.00
9760;DHT22;4919;48.792;9.202;2023-05-14T14:41:02;20.40;1.00
9760;DHT22;4919;48.792;9.202;2023-05-14T14:43:47;20.40;1.00
9760;DHT22;4919;48.792;9.202;2023-05-14T14:46:32;20.60;1.00
9760;DHT22;4919;48.792;9.202;2023-05-14T14:49:17;20.70;1.00
9760;DHT22;4919;48.792;9.202;2023-05-14T14:52:02;20.70;1.00
9760;DHT22;4919;48.792;9.202;2023-05-14T14:54:47;20.70;1.00
9760;DHT22;4919;48.792;9.202;2023-05-14T14:57:31;20.90;1.00
9760;DHT22;4919;48.792;9.202;2023-05-14T15:00:16;21.00;1.00
9760;DHT22;4919;48.792;9.202;2023-05-14T15:03:01;21.20;1.00
9760;DHT22;4919;48.792;9.202;2023-05-14T15:05:47;21.10;1.00
9760;DHT22;4919;48.792;9.202;2023-05-14T15:08:32;21.50;1.00
9760;DHT22;4919;48.792;9.202;2023-05-14T15:11:17;22.00;1.00
9760;DHT22;4919;48.792;9.202;2023-05-14T15:14:02;22.20;1.00
9760;DHT22;4919;48.792;9.202;2023-05-14T15:16:46;22.20;1.00
9760;DHT22;4919;48.792;9.202;2023-05-14T15:19:31;22.10;1.00
9760;DHT22;4919;48.792;9.202;2023-05-14T15:22:16;21.70;1.00
9760;DHT22;4919;48.792;9.202;2023-05-14T15:25:01;21.70;1.00
9760;DHT22;4919;48.792;9.202;2023-05-14T15:27:46;21.90;1.00
9760;DHT22;4919;48.792;9.202;2023-05-14T15:30:31;21.90;1.00
9760;DHT22;4919;48.792;9.202;2023-05-14T15:33:16;21.90;1.00
9760;DHT22;4919;48.792;9.202;2023-05-14T15:36:01;21.90;1.00
9760;DHT22;4919;48.792;9.202;2023-05-14T15:38:46;22.30;1.00
9760;DHT22;4919;48.792;9.202;2023-05-14T15:41:31;22.10;1.00
9760;DHT22;4919;48.792;9.202;2023-05-14T15:44:16;22.10;1.00
9760;DHT22;4919;48.792;9.202;2023-05-14T15:47:01;22.00;1.00
9760;DHT22;4919;48.792;9.202;2023-05-14T15:49:46;22.00;1.00
9760;DHT22;4919;48.792;9.202;2023-05-14T15:52:30;22.00;1.00
9760;DHT22;4919;48.792;9.202;2023-05-14T15:55:15;22.10;1.00
9760;DHT22;4919;48.792;9.202;2023-05-14T15:58:00;21.90;1.00
9760;DHT22;4919;48.792;9.202;2023-05-14T16:00:45;21.50;1.00
9760;DHT22;4919;48.792;9.202;2023-05-14T16:03:30;21.50;1.00
9760;DHT22;4919;48.792;9.202;2023-05-14T16:06:15;21.30;1.00
9760;DHT22;4919;48.792;9.202;2023-05-14T16:09:00;21.50;1.00
9760;DHT22;4919;48.792;9.202;2023-05-14T16:11:45;21.60;1.00
9760;DHT22;4919;48.792;9.202;2023-05-14T16:14:30;21.70;1.00
9760;DHT22;4919;48.792;9.202;2023-05-14T16:17:14;21.50;1.00
9760;DHT22;4919;48.792;9.202;2023-05-14T16:19:59;21.70;1.00
9760;DHT22;4919;48.792;9.202;2023-05-14T16:22:44;21.70;1.00
9760;DHT22;4919;48.792;9.202;2023-05-14T16:25:29;21.70;1.00
9760;DHT22;4919;48.792;9.202;2023-05-14T16:28:14;21.60;1.00
9760;DHT22;4919;48.792;9.202;2023-05-14T16:30:59;21.50;1.00
9760;DHT22;4919;48.792;9.202;2023-05-14T16:33:44;21.60;1.00
9760;DHT22;4919;48.792;9.202;2023-05-14T16:36:29;21.60;1.00
9760;DHT22;4919;48.792;9.202;2023-05-14T16:39:14;21.40;1.00
9760;DHT22;4919;48.792;9.202;2023-05-14T16:41:58;21.50;1.00
9760;DHT22;4919;48.792;9.202;2023-05-14T16:44:43;21.50;1.00
9760;DHT22;4919;48.792;9.202;2023-05-14T16:47:28;21.40;1.00
9760;DHT22;4919;48.792;9.202;2023-05-14T16:50:13;21.30;1.00
9760;DHT22;4919;48.792;9.202;2023-05-14T16:52:58;21.00;1.00
9760;DHT22;4919;48.792;9.202;2023-05-14T16:55:43;21.20;1.00
9760;DHT22;4919;48.792;9.202;2023-05-14T16:58:28;21.30;1.00
9760;DHT22;4919;48.792;9.202;2023-05-14T17:01:13;21.20;1.00
9760;DHT22;4919;48.792;9.202;2023-05-14T17:03:58;21.10;1.00
9760;DHT22;4919;48.792;9.202;2023-05-14T17:06:43;20.70;1.00
9760;DHT22;4919;48.792;9.202;2023-05-14T17:09:29;20.60;1.00
9760;DHT22;4919;48.792;9.202;2023-05-14T17:12:14;20.40;1.00
9760;DHT22;4919;48.792;9.202;2023-05-14T17:14:59;20.30;1.00
9760;DHT22;4919;48.792;9.202;2023-05-14T17:17:43;20.30;1.00
9760;DHT22;4919;48.792;9.202;2023-05-14T17:20:28;20.30;1.00
9760;DHT22;4919;48.792;9.202;2023-05-14T17:23:13;20.10;1.00
9760;DHT22;4919;48.792;9.202;2023-05-14T17:25:58;20.00;1.00
9760;DHT22;4919;48.792;9.202;2023-05-14T17:28:43;20.00;1.00
9760;DHT22;4919;48.792;9.202;2023-05-14T17:31:28;20.00;1.00
9760;DHT22;4919;48.792;9.202;2023-05-14T17:34:14;19.80;1.00
9760;DHT22;4919;48.792;9.202;2023-05-14T17:36:58;19.60;1.00
9760;DHT22;4919;48.792;9.202;2023-05-14T17:39:43;19.50;1.00
9760;DHT22;4919;48.792;9.202;2023-05-14T17:42:28;19.40;1.00
9760;DHT22;4919;48.792;9.202;2023-05-14T17:45:13;19.30;1.00
9760;DHT22;4919;48.792;9.202;2023-05-14T17:47:58;19.20;1.00
9760;DHT22;4919;48.792;9.202;2023-05-14T17:50:43;19.10;1.00
9760;DHT22;4919;48.792;9.202;2023-05-14T17:53:28;19.00;1.00
9760;DHT22;4919;48.792;9.202;2023-05-14T17:56:13;19.00;1.00
9760;DHT22;4919;48.792;9.202;2023-05-14T17:58:57;18.90;1.00
9760;DHT22;4919;48.792;9.202;2023-05-14T18:01:43;18.90;1.00
9760;DHT22;4919;48.792;9.202;2023-05-14T18:04:27;18.70;1.00
9760;DHT22;4919;48.792;9.202;2023-05-14T18:07:12;18.60;1.00
9760;DHT22;4919;48.792;9.202;2023-05-14T18:09:57;18.70;1.00
9760;DHT22;4919;48.792;9.202;2023-05-14T18:12:42;18.50;1.00
9760;DHT22;4919;48.792;9.202;2023-05-14T18:15:28;18.40;1.00
9760;DHT22;4919;48.792;9.202;2023-05-14T18:18:13;18.30;1.00
9760;DHT22;4919;48.792;9.202;2023-05-14T18:20:58;18.10;1.00
9760;DHT22;4919;48.792;9.202;2023-05-14T18:23:42;18.00;1.00
9760;DHT22;4919;48.792;9.202;2023-05-14T18:26:27;17.90;1.00